sensor_id;sensor_type;location;lat;lon;timestamp;P1;durP1;ratioP1;P2;durP2;ratioP2
52620;SDS011;38515;53.160;6.990;2023-09-18T00:00:27;659.95;;;604.28;;
52620;SDS011;38515;53.160;6.990;2023-09-18T00:02:55;706.63;;;647.30;;
52620;SDS011;38515;53.160;6.990;2023-09-18T00:05:21;841.63;;;766.65;;
52620;SDS011;38515;53.160;6.990;2023-09-18T00:07:47;610.75;;;559.65;;
52620;SDS011;38515;53.160;6.990;2023-09-18T00:10:13;836.38;;;759.88;;
52620;SDS011;38515;53.160;6.990;2023-09-18T00:12:39;611.83;;;566.05;;
52620;SDS011;38515;53.160;6.990;2023-09-18T00:15:05;583.22;;;535.65;;
52620;SDS011;38515;53.160;6.990;2023-09-18T00:17:34;576.00;;;533.05;;
52620;SDS011;38515;53.160;6.990;2023-09-18T00:20:00;570.30;;;525.65;;
52620;SDS011;38515;53.160;6.990;2023-09-18T00:22:28;641.20;;;587.45;;
52620;SDS011;38515;53.160;6.990;2023-09-18T00:24:54;631.30;;;579.85;;
52620;SDS011;38515;53.160;6.990;2023-09-18T00:27:20;590.10;;;542.75;;
52620;SDS011;38515;53.160;6.990;2023-09-18T00:29:45;618.67;;;567.08;;
52620;SDS011;38515;53.160;6.990;2023-09-18T00:32:11;569.22;;;523.70;;
52620;SDS011;38515;53.160;6.990;2023-09-18T00:34:37;540.65;;;497.48;;
52620;SDS011;38515;53.160;6.990;2023-09-18T00:37:03;486.50;;;446.98;;
52620;SDS011;38515;53.160;6.990;2023-09-18T00:39:29;562.38;;;515.28;;
52620;SDS011;38515;53.160;6.990;2023-09-18T00:41:56;548.75;;;503.25;;
52620;SDS011;38515;53.160;6.990;2023-09-18T00:44:22;656.70;;;601.40;;
52620;SDS011;38515;53.160;6.990;2023-09-18T00:46:51;725.88;;;653.25;;
52620;SDS011;38515;53.160;6.990;2023-09-18T00:49:20;620.08;;;568.15;;
52620;SDS011;38515;53.160;6.990;2023-09-18T00:51:47;561.08;;;515.22;;
52620;SDS011;38515;53.160;6.990;2023-09-18T00:54:14;538.90;;;494.70;;
52620;SDS011;38515;53.160;6.990;2023-09-18T00:56:44;469.65;;;432.73;;
52620;SDS011;38515;53.160;6.990;2023-09-18T00:59:11;419.73;;;389.20;;
52620;SDS011;38515;53.160;6.990;2023-09-18T01:01:39;458.52;;;424.85;;
52620;SDS011;38515;53.160;6.990;2023-09-18T01:04:05;437.33;;;405.65;;
52620;SDS011;38515;53.160;6.990;2023-09-18T01:06:32;415.20;;;386.65;;
52620;SDS011;38515;53.160;6.990;2023-09-18T01:08:58;465.30;;;431.67;;
52620;SDS011;38515;53.160;6.990;2023-09-18T01:14:25;528.00;;;487.23;;
52620;SDS011;38515;53.160;6.990;2023-09-18T01:16:59;553.70;;;512.88;;
52620;SDS011;38515;53.160;6.990;2023-09-18T01:19:45;547.40;;;505.77;;
52620;SDS011;38515;53.160;6.990;2023-09-18T01:22:13;584.78;;;540.33;;
52620;SDS011;38515;53.160;6.990;2023-09-18T01:24:44;571.90;;;526.85;;
52620;SDS011;38515;53.160;6.990;2023-09-18T01:27:15;592.78;;;547.17;;
52620;SDS011;38515;53.160;6.990;2023-09-18T01:29:46;548.08;;;508.95;;
52620;SDS011;38515;53.160;6.990;2023-09-18T01:32:12;567.97;;;526.90;;
52620;SDS011;38515;53.160;6.990;2023-09-18T01:34:40;471.63;;;438.83;;
52620;SDS011;38515;53.160;6.990;2023-09-18T01:37:19;528.35;;;489.45;;
52620;SDS011;38515;53.160;6.990;2023-09-18T01:39:48;530.65;;;492.13;;
52620;SDS011;38515;53.160;6.990;2023-09-18T01:42:16;538.47;;;499.00;;
52620;SDS011;38515;53.160;6.990;2023-09-18T01:44:43;593.95;;;547.05;;
52620;SDS011;38515;53.160;6.990;2023-09-18T01:47:12;576.20;;;531.30;;
52620;SDS011;38515;53.160;6.990;2023-09-18T01:49:41;617.83;;;569.28;;
52620;SDS011;38515;53.160;6.990;2023-09-18T01:52:08;574.70;;;528.97;;
52620;SDS011;38515;53.160;6.990;2023-09-18T01:54:35;637.55;;;584.72;;
52620;SDS011;38515;53.160;6.990;2023-09-18T01:57:02;560.85;;;519.63;;
52620;SDS011;38515;53.160;6.990;2023-09-18T01:59:28;644.17;;;592.65;;
52620;SDS011;38515;53.160;6.990;2023-09-18T02:01:55;600.60;;;553.28;;
52620;SDS011;38515;53.160;6.990;2023-09-18T02:04:21;667.17;;;612.67;;
52620;SDS011;38515;53.160;6.990;2023-09-18T02:06:50;692.15;;;634.45;;
52620;SDS011;38515;53.160;6.990;2023-09-18T02:09:17;621.67;;;575.25;;
52620;SDS011;38515;53.160;6.990;2023-09-18T02:11:44;581.72;;;538.33;;
52620;SDS011;38515;53.160;6.990;2023-09-18T02:14:11;468.55;;;437.88;;
52620;SDS011;38515;53.160;6.990;2023-09-18T02:16:38;405.27;;;379.35;;
52620;SDS011;38515;53.160;6.990;2023-09-18T02:19:09;477.20;;;442.55;;
52620;SDS011;38515;53.160;6.990;2023-09-18T02:21:36;455.58;;;424.15;;
52620;SDS011;38515;53.160;6.990;2023-09-18T02:24:02;528.45;;;489.85;;
52620;SDS011;38515;53.160;6.990;2023-09-18T02:26:28;581.55;;;535.33;;
52620;SDS011;38515;53.160;6.990;2023-09-18T02:28:57;573.45;;;530.85;;
52620;SDS011;38515;53.160;6.990;2023-09-18T02:31:24;609.25;;;561.28;;
52620;SDS011;38515;53.160;6.990;2023-09-18T02:33:50;552.72;;;510.75;;
52620;SDS011;38515;53.160;6.990;2023-09-18T02:36:16;514.85;;;477.55;;
52620;SDS011;38515;53.160;6.990;2023-09-18T02:38:42;515.53;;;477.45;;
52620;SDS011;38515;53.160;6.990;2023-09-18T02:41:08;518.85;;;481.23;;
52620;SDS011;38515;53.160;6.990;2023-09-18T02:43:35;511.52;;;473.85;;
52620;SDS011;38515;53.160;6.990;2023-09-18T02:46:03;463.00;;;432.80;;
52620;SDS011;38515;53.160;6.990;2023-09-18T02:48:30;515.42;;;478.52;;
52620;SDS011;38515;53.160;6.990;2023-09-18T02:50:56;511.27;;;475.35;;
52620;SDS011;38515;53.160;6.990;2023-09-18T02:53:24;469.92;;;438.58;;
52620;SDS011;38515;53.160;6.990;2023-09-18T02:55:50;496.55;;;458.02;;
52620;SDS011;38515;53.160;6.990;2023-09-18T02:58:17;481.85;;;447.90;;
52620;SDS011;38515;53.160;6.990;2023-09-18T03:00:48;427.67;;;399.70;;
52620;SDS011;38515;53.160;6.990;2023-09-18T03:03:20;421.13;;;395.30;;
52620;SDS011;38515;53.160;6.990;2023-09-18T03:05:46;421.15;;;395.13;;
52620;SDS011;38515;53.160;6.990;2023-09-18T03:08:13;456.05;;;426.98;;
52620;SDS011;38515;53.160;6.990;2023-09-18T03:10:43;303.90;;;287.65;;
52620;SDS011;38515;53.160;6.990;2023-09-18T03:13:10;469.27;;;439.23;;
52620;SDS011;38515;53.160;6.990;2023-09-18T03:15:36;427.90;;;401.92;;
52620;SDS011;38515;53.160;6.990;2023-09-18T03:18:03;418.42;;;393.05;;
52620;SDS011;38515;53.160;6.990;2023-09-18T03:20:30;436.92;;;409.50;;
52620;SDS011;38515;53.160;6.990;2023-09-18T03:22:57;531.10;;;495.58;;
52620;SDS011;38515;53.160;6.990;2023-09-18T03:25:25;455.75;;;427.15;;
52620;SDS011;38515;53.160;6.990;2023-09-18T03:27:52;498.42;;;464.63;;
52620;SDS011;38515;53.160;6.990;2023-09-18T03:30:19;486.58;;;455.27;;
52620;SDS011;38515;53.160;6.990;2023-09-18T03:32:46;423.88;;;397.70;;
52620;SDS011;38515;53.160;6.990;2023-09-18T03:35:13;503.60;;;469.00;;
52620;SDS011;38515;53.160;6.990;2023-09-18T03:37:49;414.08;;;389.30;;
52620;SDS011;38515;53.160;6.990;2023-09-18T03:40:17;450.75;;;419.75;;
52620;SDS011;38515;53.160;6.990;2023-09-18T03:42:47;435.15;;;407.77;;
52620;SDS011;38515;53.160;6.990;2023-09-18T03:45:14;498.92;;;465.67;;
52620;SDS011;38515;53.160;6.990;2023-09-18T03:47:41;477.30;;;445.85;;
52620;SDS011;38515;53.160;6.990;2023-09-18T03:50:07;462.40;;;432.00;;
52620;SDS011;38515;53.160;6.990;2023-09-18T03:52:34;398.75;;;374.25;;
52620;SDS011;38515;53.160;6.990;2023-09-18T03:55:00;417.83;;;393.08;;
52620;SDS011;38515;53.160;6.990;2023-09-18T03:57:26;468.23;;;437.50;;
52620;SDS011;38515;53.160;6.990;2023-09-18T03:59:55;494.30;;;461.23;;
52620;SDS011;38515;53.160;6.990;2023-09-18T04:02:24;477.88;;;445.90;;
52620;SDS011;38515;53.160;6.990;2023-09-18T04:04:51;415.77;;;389.42;;
52620;SDS011;38515;53.160;6.990;2023-09-18T04:07:18;341.90;;;321.33;;
52620;SDS011;38515;53.160;6.990;2023-09-18T04:09:45;474.38;;;443.50;;
52620;SDS011;38515;53.160;6.990;2023-09-18T04:12:11;490.27;;;457.80;;
52620;SDS011;38515;53.160;6.990;2023-09-18T04:14:38;425.85;;;398.48;;
52620;SDS011;38515;53.160;6.990;2023-09-18T04:17:03;375.00;;;351.73;;
52620;SDS011;38515;53.160;6.990;2023-09-18T04:19:29;450.42;;;422.00;;
52620;SDS011;38515;53.160;6.990;2023-09-18T04:21:55;350.02;;;329.38;;
52620;SDS011;38515;53.160;6.990;2023-09-18T04:24:22;359.02;;;337.80;;
52620;SDS011;38515;53.160;6.990;2023-09-18T04:26:48;472.38;;;440.45;;
52620;SDS011;38515;53.160;6.990;2023-09-18T04:29:18;477.77;;;444.10;;
52620;SDS011;38515;53.160;6.990;2023-09-18T04:31:45;383.10;;;359.67;;
52620;SDS011;38515;53.160;6.990;2023-09-18T04:34:11;390.17;;;366.42;;
52620;SDS011;38515;53.160;6.990;2023-09-18T04:36:37;447.98;;;420.20;;
52620;SDS011;38515;53.160;6.990;2023-09-18T04:39:06;481.20;;;449.75;;
52620;SDS011;38515;53.160;6.990;2023-09-18T04:41:32;453.88;;;424.38;;
52620;SDS011;38515;53.160;6.990;2023-09-18T04:43:58;406.05;;;379.90;;
52620;SDS011;38515;53.160;6.990;2023-09-18T04:46:24;357.48;;;335.98;;
52620;SDS011;38515;53.160;6.990;2023-09-18T04:48:50;476.13;;;445.40;;
52620;SDS011;38515;53.160;6.990;2023-09-18T04:51:16;373.90;;;352.05;;
52620;SDS011;38515;53.160;6.990;2023-09-18T04:53:42;450.20;;;421.38;;
52620;SDS011;38515;53.160;6.990;2023-09-18T04:56:08;520.53;;;484.38;;
52620;SDS011;38515;53.160;6.990;2023-09-18T04:58:37;458.27;;;428.40;;
52620;SDS011;38515;53.160;6.990;2023-09-18T05:01:04;368.13;;;346.08;;
52620;SDS011;38515;53.160;6.990;2023-09-18T05:03:32;348.40;;;328.73;;
52620;SDS011;38515;53.160;6.990;2023-09-18T05:05:59;378.30;;;355.45;;
52620;SDS011;38515;53.160;6.990;2023-09-18T05:08:25;478.70;;;446.83;;
52620;SDS011;38515;53.160;6.990;2023-09-18T05:10:51;463.55;;;432.02;;
52620;SDS011;38515;53.160;6.990;2023-09-18T05:13:16;369.48;;;347.27;;
52620;SDS011;38515;53.160;6.990;2023-09-18T05:15:43;458.00;;;427.20;;
52620;SDS011;38515;53.160;6.990;2023-09-18T05:18:09;434.90;;;406.60;;
52620;SDS011;38515;53.160;6.990;2023-09-18T05:20:35;455.58;;;425.17;;
52620;SDS011;38515;53.160;6.990;2023-09-18T05:23:01;445.77;;;416.92;;
52620;SDS011;38515;53.160;6.990;2023-09-18T05:25:28;373.35;;;351.25;;
52620;SDS011;38515;53.160;6.990;2023-09-18T05:27:59;364.20;;;343.02;;
52620;SDS011;38515;53.160;6.990;2023-09-18T05:30:27;479.38;;;447.33;;
52620;SDS011;38515;53.160;6.990;2023-09-18T05:33:03;449.30;;;420.02;;
52620;SDS011;38515;53.160;6.990;2023-09-18T05:35:33;410.45;;;384.73;;
52620;SDS011;38515;53.160;6.990;2023-09-18T05:38:02;427.17;;;399.38;;
52620;SDS011;38515;53.160;6.990;2023-09-18T05:40:28;467.13;;;436.27;;
52620;SDS011;38515;53.160;6.990;2023-09-18T05:42:55;479.45;;;446.13;;
52620;SDS011;38515;53.160;6.990;2023-09-18T05:45:21;456.60;;;424.60;;
52620;SDS011;38515;53.160;6.990;2023-09-18T05:47:48;435.08;;;407.08;;
52620;SDS011;38515;53.160;6.990;2023-09-18T05:50:15;470.58;;;438.75;;
52620;SDS011;38515;53.160;6.990;2023-09-18T05:52:48;421.75;;;394.27;;
52620;SDS011;38515;53.160;6.990;2023-09-18T05:55:17;509.77;;;473.63;;
52620;SDS011;38515;53.160;6.990;2023-09-18T05:57:43;431.02;;;402.20;;
52620;SDS011;38515;53.160;6.990;2023-09-18T06:00:09;510.27;;;473.98;;
52620;SDS011;38515;53.160;6.990;2023-09-18T06:02:38;516.88;;;480.63;;
52620;SDS011;38515;53.160;6.990;2023-09-18T06:05:05;488.30;;;453.27;;
52620;SDS011;38515;53.160;6.990;2023-09-18T06:07:31;538.55;;;499.80;;
52620;SDS011;38515;53.160;6.990;2023-09-18T06:09:58;509.55;;;475.75;;
52620;SDS011;38515;53.160;6.990;2023-09-18T06:12:24;443.42;;;413.17;;
52620;SDS011;38515;53.160;6.990;2023-09-18T06:14:51;420.63;;;394.25;;
52620;SDS011;38515;53.160;6.990;2023-09-18T06:17:17;386.23;;;363.08;;
52620;SDS011;38515;53.160;6.990;2023-09-18T06:19:43;519.83;;;482.40;;
52620;SDS011;38515;53.160;6.990;2023-09-18T06:22:10;534.72;;;495.17;;
52620;SDS011;38515;53.160;6.990;2023-09-18T06:24:37;510.08;;;472.85;;
52620;SDS011;38515;53.160;6.990;2023-09-18T06:27:03;610.00;;;560.03;;
52620;SDS011;38515;53.160;6.990;2023-09-18T06:29:33;569.60;;;525.05;;
52620;SDS011;38515;53.160;6.990;2023-09-18T06:31:59;565.20;;;521.42;;
52620;SDS011;38515;53.160;6.990;2023-09-18T06:34:26;560.50;;;517.47;;
52620;SDS011;38515;53.160;6.990;2023-09-18T06:36:53;601.47;;;551.85;;
52620;SDS011;38515;53.160;6.990;2023-09-18T06:39:19;578.35;;;533.40;;
52620;SDS011;38515;53.160;6.990;2023-09-18T06:41:49;646.65;;;592.95;;
52620;SDS011;38515;53.160;6.990;2023-09-18T06:44:15;569.38;;;526.38;;
52620;SDS011;38515;53.160;6.990;2023-09-18T06:46:41;624.75;;;572.30;;
52620;SDS011;38515;53.160;6.990;2023-09-18T06:49:07;575.65;;;530.22;;
52620;SDS011;38515;53.160;6.990;2023-09-18T06:51:33;675.95;;;615.63;;
52620;SDS011;38515;53.160;6.990;2023-09-18T06:53:59;585.70;;;536.97;;
52620;SDS011;38515;53.160;6.990;2023-09-18T06:56:27;530.95;;;493.20;;
52620;SDS011;38515;53.160;6.990;2023-09-18T06:58:54;563.28;;;518.88;;
52620;SDS011;38515;53.160;6.990;2023-09-18T07:01:20;553.25;;;510.05;;
52620;SDS011;38515;53.160;6.990;2023-09-18T07:03:47;578.65;;;532.67;;
52620;SDS011;38515;53.160;6.990;2023-09-18T07:06:16;589.50;;;542.45;;
52620;SDS011;38515;53.160;6.990;2023-09-18T07:08:43;583.25;;;538.63;;
52620;SDS011;38515;53.160;6.990;2023-09-18T07:11:09;522.42;;;483.08;;
52620;SDS011;38515;53.160;6.990;2023-09-18T07:13:37;514.10;;;476.40;;
52620;SDS011;38515;53.160;6.990;2023-09-18T07:16:03;534.08;;;492.48;;
52620;SDS011;38515;53.160;6.990;2023-09-18T07:18:29;574.30;;;527.47;;
52620;SDS011;38515;53.160;6.990;2023-09-18T07:20:55;674.67;;;618.38;;
52620;SDS011;38515;53.160;6.990;2023-09-18T07:23:21;748.15;;;682.22;;
52620;SDS011;38515;53.160;6.990;2023-09-18T07:25:47;713.63;;;652.17;;
52620;SDS011;38515;53.160;6.990;2023-09-18T07:28:13;664.97;;;607.72;;
52620;SDS011;38515;53.160;6.990;2023-09-18T07:30:43;653.00;;;598.38;;
52620;SDS011;38515;53.160;6.990;2023-09-18T07:33:12;672.53;;;614.45;;
52620;SDS011;38515;53.160;6.990;2023-09-18T07:35:46;778.53;;;704.78;;
52620;SDS011;38515;53.160;6.990;2023-09-18T07:38:13;782.30;;;705.78;;
52620;SDS011;38515;53.160;6.990;2023-09-18T07:40:39;736.40;;;667.50;;
52620;SDS011;38515;53.160;6.990;2023-09-18T07:43:05;803.22;;;723.38;;
52620;SDS011;38515;53.160;6.990;2023-09-18T07:45:31;837.97;;;752.50;;
52620;SDS011;38515;53.160;6.990;2023-09-18T07:47:56;786.20;;;709.03;;
52620;SDS011;38515;53.160;6.990;2023-09-18T07:50:22;778.83;;;705.63;;
52620;SDS011;38515;53.160;6.990;2023-09-18T07:52:48;779.30;;;703.47;;
52620;SDS011;38515;53.160;6.990;2023-09-18T07:55:14;751.28;;;680.03;;
52620;SDS011;38515;53.160;6.990;2023-09-18T07:57:40;689.45;;;627.13;;
52620;SDS011;38515;53.160;6.990;2023-09-18T08:00:06;738.20;;;669.53;;
52620;SDS011;38515;53.160;6.990;2023-09-18T08:02:37;725.40;;;658.67;;
52620;SDS011;38515;53.160;6.990;2023-09-18T08:05:04;714.80;;;650.88;;
52620;SDS011;38515;53.160;6.990;2023-09-18T08:07:30;722.78;;;659.25;;
52620;SDS011;38515;53.160;6.990;2023-09-18T08:09:57;678.58;;;618.08;;
52620;SDS011;38515;53.160;6.990;2023-09-18T08:12:23;723.88;;;660.17;;
52620;SDS011;38515;53.160;6.990;2023-09-18T08:14:49;746.72;;;675.58;;
52620;SDS011;38515;53.160;6.990;2023-09-18T08:17:15;757.13;;;686.70;;
52620;SDS011;38515;53.160;6.990;2023-09-18T08:19:41;782.58;;;712.83;;
52620;SDS011;38515;53.160;6.990;2023-09-18T08:22:09;728.28;;;660.92;;
52620;SDS011;38515;53.160;6.990;2023-09-18T08:24:40;752.33;;;682.78;;
52620;SDS011;38515;53.160;6.990;2023-09-18T08:27:06;771.70;;;704.38;;
52620;SDS011;38515;53.160;6.990;2023-09-18T08:29:32;773.38;;;704.05;;
52620;SDS011;38515;53.160;6.990;2023-09-18T08:31:58;775.42;;;703.38;;
52620;SDS011;38515;53.160;6.990;2023-09-18T08:34:24;782.30;;;710.55;;
52620;SDS011;38515;53.160;6.990;2023-09-18T08:36:50;756.40;;;687.70;;
52620;SDS011;38515;53.160;6.990;2023-09-18T08:39:15;749.47;;;681.40;;
52620;SDS011;38515;53.160;6.990;2023-09-18T08:41:42;775.20;;;704.75;;
52620;SDS011;38515;53.160;6.990;2023-09-18T08:44:08;779.67;;;707.85;;
52620;SDS011;38515;53.160;6.990;2023-09-18T08:46:36;830.65;;;751.03;;
52620;SDS011;38515;53.160;6.990;2023-09-18T08:49:02;816.65;;;738.38;;
52620;SDS011;38515;53.160;6.990;2023-09-18T08:51:30;867.13;;;787.47;;
52620;SDS011;38515;53.160;6.990;2023-09-18T08:53:57;593.65;;;550.13;;
52620;SDS011;38515;53.160;6.990;2023-09-18T08:56:23;711.30;;;651.95;;
52620;SDS011;38515;53.160;6.990;2023-09-18T08:58:50;838.35;;;758.25;;
52620;SDS011;38515;53.160;6.990;2023-09-18T09:01:17;703.92;;;643.03;;
52620;SDS011;38515;53.160;6.990;2023-09-18T09:03:50;755.92;;;686.67;;
52620;SDS011;38515;53.160;6.990;2023-09-18T09:06:17;730.45;;;668.65;;
52620;SDS011;38515;53.160;6.990;2023-09-18T09:08:43;740.85;;;673.00;;
52620;SDS011;38515;53.160;6.990;2023-09-18T09:11:12;752.60;;;684.80;;
52620;SDS011;38515;53.160;6.990;2023-09-18T09:13:37;789.80;;;716.42;;
52620;SDS011;38515;53.160;6.990;2023-09-18T09:16:04;749.92;;;682.75;;
52620;SDS011;38515;53.160;6.990;2023-09-18T09:18:29;737.03;;;672.58;;
52620;SDS011;38515;53.160;6.990;2023-09-18T09:21:02;725.00;;;660.08;;
52620;SDS011;38515;53.160;6.990;2023-09-18T09:23:44;648.10;;;593.45;;
52620;SDS011;38515;53.160;6.990;2023-09-18T09:26:15;726.53;;;661.95;;
52620;SDS011;38515;53.160;6.990;2023-09-18T09:28:42;749.03;;;680.72;;
52620;SDS011;38515;53.160;6.990;2023-09-18T09:31:10;765.10;;;696.92;;
52620;SDS011;38515;53.160;6.990;2023-09-18T09:33:36;732.40;;;667.17;;
52620;SDS011;38515;53.160;6.990;2023-09-18T09:36:04;703.45;;;644.10;;
52620;SDS011;38515;53.160;6.990;2023-09-18T09:38:31;726.70;;;663.22;;
52620;SDS011;38515;53.160;6.990;2023-09-18T09:41:02;686.75;;;629.65;;
52620;SDS011;38515;53.160;6.990;2023-09-18T09:43:35;764.67;;;698.95;;
52620;SDS011;38515;53.160;6.990;2023-09-18T09:46:01;807.67;;;734.08;;
52620;SDS011;38515;53.160;6.990;2023-09-18T09:48:27;737.67;;;670.92;;
52620;SDS011;38515;53.160;6.990;2023-09-18T09:50:57;698.10;;;635.33;;
52620;SDS011;38515;53.160;6.990;2023-09-18T09:53:46;744.67;;;676.80;;
52620;SDS011;38515;53.160;6.990;2023-09-18T09:56:14;752.92;;;682.13;;
52620;SDS011;38515;53.160;6.990;2023-09-18T09:58:46;710.17;;;646.58;;
52620;SDS011;38515;53.160;6.990;2023-09-18T10:01:27;666.45;;;609.28;;
52620;SDS011;38515;53.160;6.990;2023-09-18T10:03:56;766.65;;;696.15;;
52620;SDS011;38515;53.160;6.990;2023-09-18T10:06:23;747.25;;;678.03;;
52620;SDS011;38515;53.160;6.990;2023-09-18T10:08:50;825.40;;;750.38;;
52620;SDS011;38515;53.160;6.990;2023-09-18T10:11:21;830.17;;;756.35;;
52620;SDS011;38515;53.160;6.990;2023-09-18T10:13:55;738.85;;;674.42;;
52620;SDS011;38515;53.160;6.990;2023-09-18T10:16:25;840.45;;;762.67;;
52620;SDS011;38515;53.160;6.990;2023-09-18T10:19:05;790.42;;;717.83;;
52620;SDS011;38515;53.160;6.990;2023-09-18T10:24:41;697.60;;;642.38;;
52620;SDS011;38515;53.160;6.990;2023-09-18T10:27:12;709.55;;;649.17;;
52620;SDS011;38515;53.160;6.990;2023-09-18T10:29:40;708.05;;;643.67;;
52620;SDS011;38515;53.160;6.990;2023-09-18T10:32:07;683.25;;;626.75;;
52620;SDS011;38515;53.160;6.990;2023-09-18T10:34:34;694.75;;;638.05;;
52620;SDS011;38515;53.160;6.990;2023-09-18T10:37:01;730.28;;;659.70;;
52620;SDS011;38515;53.160;6.990;2023-09-18T10:39:33;625.70;;;574.83;;
52620;SDS011;38515;53.160;6.990;2023-09-18T10:42:02;691.08;;;628.95;;
52620;SDS011;38515;53.160;6.990;2023-09-18T10:44:35;783.00;;;715.33;;
52620;SDS011;38515;53.160;6.990;2023-09-18T10:47:02;640.47;;;592.45;;
52620;SDS011;38515;53.160;6.990;2023-09-18T10:49:33;666.33;;;610.38;;
52620;SDS011;38515;53.160;6.990;2023-09-18T10:52:00;744.80;;;681.45;;
52620;SDS011;38515;53.160;6.990;2023-09-18T10:54:27;680.50;;;626.90;;
52620;SDS011;38515;53.160;6.990;2023-09-18T10:56:55;596.78;;;548.50;;
52620;SDS011;38515;53.160;6.990;2023-09-18T10:59:22;701.90;;;644.60;;
52620;SDS011;38515;53.160;6.990;2023-09-18T11:01:48;602.20;;;552.10;;
52620;SDS011;38515;53.160;6.990;2023-09-18T11:04:18;594.33;;;545.85;;
52620;SDS011;38515;53.160;6.990;2023-09-18T11:09:20;641.17;;;589.55;;
52620;SDS011;38515;53.160;6.990;2023-09-18T11:12:01;626.17;;;577.08;;
52620;SDS011;38515;53.160;6.990;2023-09-18T11:22:38;374.42;;;349.85;;
52620;SDS011;38515;53.160;6.990;2023-09-18T11:28:24;321.65;;;302.95;;
52620;SDS011;38515;53.160;6.990;2023-09-18T11:30:55;324.98;;;306.35;;
52620;SDS011;38515;53.160;6.990;2023-09-18T11:41:27;345.05;;;324.75;;
52620;SDS011;38515;53.160;6.990;2023-09-18T11:46:37;265.73;;;252.05;;
52620;SDS011;38515;53.160;6.990;2023-09-18T11:49:22;236.27;;;223.40;;
52620;SDS011;38515;53.160;6.990;2023-09-18T11:51:51;383.55;;;360.13;;
52620;SDS011;38515;53.160;6.990;2023-09-18T11:54:18;319.17;;;300.08;;
52620;SDS011;38515;53.160;6.990;2023-09-18T11:56:44;428.40;;;400.38;;
52620;SDS011;38515;53.160;6.990;2023-09-18T11:59:10;273.00;;;257.05;;
52620;SDS011;38515;53.160;6.990;2023-09-18T12:01:37;419.50;;;393.52;;
52620;SDS011;38515;53.160;6.990;2023-09-18T12:04:04;299.13;;;282.67;;
52620;SDS011;38515;53.160;6.990;2023-09-18T12:06:40;344.27;;;324.77;;
52620;SDS011;38515;53.160;6.990;2023-09-18T12:09:07;312.13;;;294.38;;
52620;SDS011;38515;53.160;6.990;2023-09-18T12:11:34;340.75;;;320.73;;
52620;SDS011;38515;53.160;6.990;2023-09-18T12:14:01;282.10;;;266.10;;
52620;SDS011;38515;53.160;6.990;2023-09-18T12:16:30;335.05;;;314.50;;
52620;SDS011;38515;53.160;6.990;2023-09-18T12:19:03;271.17;;;257.30;;
52620;SDS011;38515;53.160;6.990;2023-09-18T12:21:31;370.40;;;348.88;;
52620;SDS011;38515;53.160;6.990;2023-09-18T12:23:57;363.40;;;343.17;;
52620;SDS011;38515;53.160;6.990;2023-09-18T12:26:24;346.08;;;327.63;;
52620;SDS011;38515;53.160;6.990;2023-09-18T12:28:51;260.45;;;246.85;;
52620;SDS011;38515;53.160;6.990;2023-09-18T12:31:17;331.67;;;312.58;;
52620;SDS011;38515;53.160;6.990;2023-09-18T12:33:44;314.02;;;296.85;;
52620;SDS011;38515;53.160;6.990;2023-09-18T12:36:12;263.20;;;249.57;;
52620;SDS011;38515;53.160;6.990;2023-09-18T12:38:55;262.67;;;248.55;;
52620;SDS011;38515;53.160;6.990;2023-09-18T12:41:23;280.95;;;266.23;;
52620;SDS011;38515;53.160;6.990;2023-09-18T12:43:50;334.85;;;316.20;;
52620;SDS011;38515;53.160;6.990;2023-09-18T12:46:17;321.35;;;304.02;;
52620;SDS011;38515;53.160;6.990;2023-09-18T12:48:47;350.38;;;330.13;;
52620;SDS011;38515;53.160;6.990;2023-09-18T12:51:14;276.30;;;259.98;;
52620;SDS011;38515;53.160;6.990;2023-09-18T12:53:41;382.02;;;358.60;;
52620;SDS011;38515;53.160;6.990;2023-09-18T12:56:11;354.02;;;332.67;;
52620;SDS011;38515;53.160;6.990;2023-09-18T12:58:38;260.05;;;246.30;;
52620;SDS011;38515;53.160;6.990;2023-09-18T13:01:08;310.85;;;291.20;;
52620;SDS011;38515;53.160;6.990;2023-09-18T13:03:45;284.05;;;268.73;;
52620;SDS011;38515;53.160;6.990;2023-09-18T13:06:14;295.25;;;276.65;;
52620;SDS011;38515;53.160;6.990;2023-09-18T13:08:45;372.90;;;351.90;;
52620;SDS011;38515;53.160;6.990;2023-09-18T13:11:12;337.50;;;319.00;;
52620;SDS011;38515;53.160;6.990;2023-09-18T13:13:41;168.10;;;160.00;;
52620;SDS011;38515;53.160;6.990;2023-09-18T13:16:10;241.02;;;229.40;;
52620;SDS011;38515;53.160;6.990;2023-09-18T13:18:36;374.25;;;351.42;;
52620;SDS011;38515;53.160;6.990;2023-09-18T13:21:14;203.00;;;192.70;;
52620;SDS011;38515;53.160;6.990;2023-09-18T13:23:40;269.70;;;255.85;;
52620;SDS011;38515;53.160;6.990;2023-09-18T13:26:06;301.77;;;285.95;;
52620;SDS011;38515;53.160;6.990;2023-09-18T13:28:33;247.30;;;235.52;;
52620;SDS011;38515;53.160;6.990;2023-09-18T13:31:01;185.70;;;176.50;;
52620;SDS011;38515;53.160;6.990;2023-09-18T13:33:30;171.60;;;163.80;;
52620;SDS011;38515;53.160;6.990;2023-09-18T13:35:59;183.55;;;175.02;;
52620;SDS011;38515;53.160;6.990;2023-09-18T13:38:25;174.52;;;166.52;;
52620;SDS011;38515;53.160;6.990;2023-09-18T13:40:54;215.27;;;205.00;;
52620;SDS011;38515;53.160;6.990;2023-09-18T13:43:20;239.57;;;227.88;;
52620;SDS011;38515;53.160;6.990;2023-09-18T13:45:47;221.85;;;211.50;;
52620;SDS011;38515;53.160;6.990;2023-09-18T13:48:17;252.95;;;239.80;;
52620;SDS011;38515;53.160;6.990;2023-09-18T13:50:43;213.05;;;202.10;;
52620;SDS011;38515;53.160;6.990;2023-09-18T13:53:09;222.50;;;210.95;;
52620;SDS011;38515;53.160;6.990;2023-09-18T13:55:35;224.73;;;212.48;;
52620;SDS011;38515;53.160;6.990;2023-09-18T13:58:01;192.57;;;183.55;;
52620;SDS011;38515;53.160;6.990;2023-09-18T14:00:28;243.38;;;230.45;;
52620;SDS011;38515;53.160;6.990;2023-09-18T14:02:54;288.20;;;271.08;;
52620;SDS011;38515;53.160;6.990;2023-09-18T14:05:22;194.07;;;185.10;;
52620;SDS011;38515;53.160;6.990;2023-09-18T14:07:47;264.77;;;250.07;;
52620;SDS011;38515;53.160;6.990;2023-09-18T14:10:14;249.40;;;237.32;;
52620;SDS011;38515;53.160;6.990;2023-09-18T14:12:43;198.43;;;188.90;;
52620;SDS011;38515;53.160;6.990;2023-09-18T14:15:09;308.83;;;291.65;;
52620;SDS011;38515;53.160;6.990;2023-09-18T14:17:35;351.85;;;333.33;;
52620;SDS011;38515;53.160;6.990;2023-09-18T14:20:05;297.83;;;282.77;;
52620;SDS011;38515;53.160;6.990;2023-09-18T14:22:32;299.65;;;284.17;;
52620;SDS011;38515;53.160;6.990;2023-09-18T14:24:59;308.98;;;292.58;;
52620;SDS011;38515;53.160;6.990;2023-09-18T14:27:25;207.18;;;196.63;;
52620;SDS011;38515;53.160;6.990;2023-09-18T14:29:51;288.55;;;274.02;;